createdAt,value
2019-02-09T00:00:39.571Z,6.10
2019-02-09T00:03:08.752Z,6.10
2019-02-09T00:05:37.263Z,6.00
2019-02-09T00:08:10.284Z,6.00
2019-02-09T00:10:38.713Z,6.10
2019-02-09T00:13:07.157Z,6.00
2019-02-09T00:15:36.132Z,6.00
2019-02-09T00:18:05.831Z,5.90
2019-02-09T00:20:34.351Z,5.90
2019-02-09T00:23:03.449Z,5.90
2019-02-09T00:25:31.998Z,5.90
2019-02-09T00:28:00.433Z,5.90
2019-02-09T00:30:28.865Z,5.90
2019-02-09T00:32:57.691Z,5.90
2019-02-09T00:35:26.219Z,5.90
2019-02-09T00:37:54.661Z,5.90
2019-02-09T00:40:24.846Z,5.90
2019-02-09T00:42:53.273Z,6.00
2019-02-09T00:45:23.267Z,6.10
2019-02-09T00:47:51.764Z,6.10
2019-02-09T00:50:20.778Z,6.20
2019-02-09T00:52:49.456Z,6.20
2019-02-09T00:55:25.005Z,6.20
2019-02-09T00:57:53.582Z,6.30
2019-02-09T01:00:27.531Z,6.30
2019-02-09T01:02:56.116Z,6.40
2019-02-09T01:05:36.182Z,6.50
2019-02-09T01:08:05.277Z,6.60
2019-02-09T01:10:33.930Z,6.60
2019-02-09T01:13:02.366Z,6.60
2019-02-09T01:15:30.966Z,6.60
2019-02-09T01:17:59.462Z,6.60
2019-02-09T01:20:28.562Z,6.60
2019-02-09T01:22:57.947Z,6.60
2019-02-09T01:25:26.392Z,6.60
2019-02-09T01:27:55.079Z,6.70
2019-02-09T01:30:25.467Z,6.70
2019-02-09T01:32:53.980Z,6.70
2019-02-09T01:35:22.874Z,6.70
2019-02-09T01:37:52.219Z,6.70
2019-02-09T01:40:23.076Z,6.60
2019-02-09T01:42:51.665Z,6.70
2019-02-09T01:45:22.969Z,6.60
2019-02-09T01:47:51.431Z,6.60
2019-02-09T01:50:21.823Z,6.70
2019-02-09T01:52:50.527Z,6.70
2019-02-09T01:55:19.023Z,6.70
2019-02-09T01:57:47.626Z,6.60
2019-02-09T02:00:19.057Z,6.60
2019-02-09T02:02:48.223Z,6.70
2019-02-09T02:05:19.401Z,6.60
2019-02-09T02:07:47.897Z,6.60
2019-02-09T02:10:27.423Z,6.50
2019-02-09T02:12:56.299Z,6.50
2019-02-09T02:15:25.683Z,6.40
2019-02-09T02:17:54.105Z,6.40
2019-02-09T02:20:25.157Z,6.40
2019-02-09T02:22:53.607Z,6.30
2019-02-09T02:25:23.695Z,6.30
2019-02-09T02:27:52.265Z,6.30
2019-02-09T02:30:29.520Z,6.30
2019-02-09T02:32:58.087Z,6.20
2019-02-09T02:35:26.854Z,6.20
2019-02-09T02:37:55.277Z,6.20
2019-02-09T02:40:23.987Z,6.20
2019-02-09T02:42:52.660Z,6.10
2019-02-09T02:45:23.262Z,6.10
2019-02-09T02:47:52.175Z,6.20
2019-02-09T02:50:21.918Z,6.10
2019-02-09T02:52:50.570Z,6.10
2019-02-09T02:55:29.578Z,6.10
2019-02-09T02:57:58.240Z,6.10
2019-02-09T03:00:32.885Z,6.10
2019-02-09T03:03:02.089Z,6.10
2019-02-09T03:05:30.716Z,6.10
2019-02-09T03:07:59.278Z,6.20
2019-02-09T03:10:27.795Z,6.10
2019-02-09T03:12:56.323Z,6.20
2019-02-09T03:15:27.271Z,6.10
2019-02-09T03:17:56.066Z,6.20
2019-02-09T03:20:24.666Z,6.20
2019-02-09T03:22:53.095Z,6.30
2019-02-09T03:25:34.960Z,6.30
2019-02-09T03:28:03.387Z,6.40
2019-02-09T03:30:45.785Z,6.30
2019-02-09T03:33:02.062Z,6.40
2019-02-09T03:35:30.651Z,6.40
2019-02-09T03:37:59.097Z,6.30
2019-02-09T03:40:28.473Z,6.30
2019-02-09T03:42:57.147Z,6.40
2019-02-09T03:45:28.343Z,6.30
2019-02-09T03:47:56.969Z,6.30
2019-02-09T03:50:31.248Z,6.30
2019-02-09T03:53:00.638Z,6.30
2019-02-09T03:55:29.323Z,6.30
2019-02-09T03:57:58.075Z,6.30
2019-02-09T04:00:28.550Z,6.30
2019-02-09T04:02:57.209Z,6.30
2019-02-09T04:05:25.798Z,6.30
2019-02-09T04:07:54.377Z,6.20
2019-02-09T04:10:27.119Z,6.20
2019-02-09T04:12:55.609Z,6.20
2019-02-09T04:15:26.665Z,6.20
2019-02-09T04:17:55.385Z,6.20
2019-02-09T04:20:25.311Z,6.30
2019-02-09T04:22:53.836Z,6.30
2019-02-09T04:25:23.512Z,6.30
2019-02-09T04:27:52.310Z,6.30
2019-02-09T04:30:23.342Z,6.30
2019-02-09T04:32:51.885Z,6.20
2019-02-09T04:35:20.445Z,6.30
2019-02-09T04:37:48.955Z,6.30
2019-02-09T04:40:22.197Z,6.20
2019-02-09T04:42:50.728Z,6.30
2019-02-09T04:45:19.800Z,6.30
2019-02-09T04:47:48.315Z,6.40
2019-02-09T04:50:17.494Z,6.50
2019-02-09T04:52:46.081Z,6.50
2019-02-09T04:55:19.990Z,6.60
2019-02-09T04:57:48.439Z,6.60
2019-02-09T05:00:24.593Z,6.70
2019-02-09T05:02:53.071Z,6.70
2019-02-09T05:05:21.722Z,6.80
2019-02-09T05:07:50.312Z,6.80
2019-02-09T05:10:20.883Z,6.90
2019-02-09T05:12:49.310Z,6.90
2019-02-09T05:15:19.630Z,7.00
2019-02-09T05:17:48.168Z,7.00
2019-02-09T05:20:21.320Z,7.00
2019-02-09T05:22:49.935Z,7.00
2019-02-09T05:25:18.772Z,7.00
2019-02-09T05:27:47.588Z,7.00
2019-02-09T05:30:18.353Z,7.00
2019-02-09T05:32:46.926Z,7.00
2019-02-09T05:35:15.562Z,7.00
2019-02-09T05:37:44.171Z,7.10
2019-02-09T05:40:15.422Z,7.00
2019-02-09T05:42:43.915Z,7.00
2019-02-09T05:45:17.374Z,7.10
2019-02-09T05:47:45.852Z,7.10
2019-02-09T05:50:18.706Z,7.10
2019-02-09T05:52:47.469Z,7.00
2019-02-09T05:55:16.854Z,7.00
2019-02-09T05:57:45.424Z,6.90
2019-02-09T06:00:17.743Z,6.90
2019-02-09T06:02:46.226Z,6.80
2019-02-09T06:05:14.809Z,6.80
2019-02-09T06:07:43.243Z,6.80
2019-02-09T06:10:14.779Z,6.90
2019-02-09T06:12:43.211Z,6.90
2019-02-09T06:15:17.555Z,6.90
2019-02-09T06:17:45.989Z,6.80
2019-02-09T06:20:25.514Z,6.90
2019-02-09T06:22:54.103Z,6.80
2019-02-09T06:25:22.620Z,6.80
2019-02-09T06:27:51.058Z,6.80
2019-02-09T06:30:30.497Z,6.80
2019-02-09T06:32:59.188Z,6.80
2019-02-09T06:35:28.137Z,6.70
2019-02-09T06:37:56.576Z,6.80
2019-02-09T06:40:25.465Z,6.80
2019-02-09T06:42:53.971Z,6.90
2019-02-09T06:45:24.267Z,6.90
2019-02-09T06:47:52.781Z,6.90
2019-02-09T06:50:30.069Z,6.90
2019-02-09T06:52:58.569Z,7.00
2019-02-09T06:55:27.114Z,6.90
2019-02-09T06:57:55.626Z,6.90
2019-02-09T07:00:24.193Z,7.00
2019-02-09T07:02:54.462Z,7.00
2019-02-09T07:05:23.127Z,7.00
2019-02-09T07:07:51.550Z,7.00
2019-02-09T07:10:22.415Z,6.90
2019-02-09T07:12:51.298Z,6.90
2019-02-09T07:15:28.107Z,6.90
2019-02-09T07:17:56.547Z,6.90
2019-02-09T07:20:25.196Z,6.90
2019-02-09T07:22:53.967Z,6.80
2019-02-09T07:25:22.810Z,6.80
2019-02-09T07:27:51.455Z,6.90
2019-02-09T07:30:22.522Z,6.90
2019-02-09T07:32:51.306Z,6.90
2019-02-09T07:35:20.077Z,6.90
2019-02-09T07:37:48.606Z,7.10
2019-02-09T07:40:27.353Z,7.10
2019-02-09T07:42:56.049Z,7.10
2019-02-09T07:45:32.609Z,7.20
2019-02-09T07:48:01.141Z,7.30
2019-02-09T07:50:29.702Z,7.40
2019-02-09T07:52:58.491Z,7.50
2019-02-09T07:55:27.076Z,7.70
2019-02-09T07:57:55.663Z,7.60
2019-02-09T08:00:32.121Z,7.50
2019-02-09T08:03:01.220Z,7.40
2019-02-09T08:05:31.091Z,7.40
2019-02-09T08:07:59.915Z,8.10
2019-02-09T08:10:30.433Z,9.70
2019-02-09T08:12:59.229Z,10.40
2019-02-09T08:15:29.519Z,11.10
2019-02-09T08:17:58.029Z,11.50
2019-02-09T08:20:28.874Z,11.40
2019-02-09T08:22:59.171Z,11.40
2019-02-09T08:25:30.253Z,11.70
2019-02-09T08:27:59.433Z,11.90
2019-02-09T08:30:30.782Z,12.50
2019-02-09T08:32:59.373Z,12.50
2019-02-09T08:35:27.963Z,12.20
2019-02-09T08:37:56.879Z,12.70
2019-02-09T08:40:25.399Z,12.70
2019-02-09T08:42:53.845Z,12.70
2019-02-09T08:45:23.430Z,13.00
2019-02-09T08:47:52.027Z,13.20
2019-02-09T08:50:26.007Z,13.50
2019-02-09T08:52:54.453Z,13.20
2019-02-09T08:55:23.259Z,12.80
2019-02-09T08:57:52.060Z,12.80
2019-02-09T09:00:29.252Z,13.30
2019-02-09T09:02:57.779Z,13.40
2019-02-09T09:05:26.386Z,13.20
2019-02-09T09:07:54.968Z,13.20
2019-02-09T09:10:25.903Z,13.20
2019-02-09T09:12:54.425Z,13.50
2019-02-09T09:15:31.346Z,13.10
2019-02-09T09:17:59.922Z,13.10
2019-02-09T09:20:34.156Z,14.60
2019-02-09T09:23:02.608Z,15.00
2019-02-09T09:25:31.176Z,15.30
2019-02-09T09:27:59.702Z,14.10
2019-02-09T09:30:29.890Z,14.00
2019-02-09T09:32:58.486Z,13.40
2019-02-09T09:35:26.990Z,13.60
2019-02-09T09:37:56.062Z,12.10
2019-02-09T09:40:38.769Z,11.10
2019-02-09T09:43:07.390Z,10.60
2019-02-09T09:45:37.833Z,10.50
2019-02-09T09:48:08.322Z,10.40
2019-02-09T09:50:36.825Z,10.20
2019-02-09T09:53:05.670Z,10.20
2019-02-09T09:55:34.462Z,10.40
2019-02-09T09:58:02.974Z,10.30
2019-02-09T10:00:31.428Z,10.40
2019-02-09T10:02:59.926Z,10.50
2019-02-09T10:05:28.410Z,10.40
2019-02-09T10:07:56.915Z,11.90
2019-02-09T10:10:25.695Z,14.10
2019-02-09T10:12:54.165Z,14.40
2019-02-09T10:15:24.951Z,14.90
2019-02-09T10:17:53.675Z,15.30
2019-02-09T10:20:24.463Z,15.10
2019-02-09T10:22:53.042Z,15.80
2019-02-09T10:25:21.863Z,13.50
2019-02-09T10:27:52.183Z,12.90
2019-02-09T10:30:25.672Z,12.30
2019-02-09T10:32:54.179Z,12.40
2019-02-09T10:35:23.561Z,12.30
2019-02-09T10:37:52.037Z,12.10
2019-02-09T10:40:25.449Z,11.50
2019-02-09T10:42:54.127Z,11.10
2019-02-09T10:45:27.215Z,11.00
2019-02-09T10:47:55.785Z,11.00
2019-02-09T10:50:36.181Z,11.00
2019-02-09T10:53:05.257Z,11.00
2019-02-09T10:55:33.858Z,11.10
2019-02-09T10:58:02.532Z,11.30
2019-02-09T11:00:46.075Z,11.20
2019-02-09T11:03:14.642Z,11.20
2019-02-09T11:05:43.240Z,11.00
2019-02-09T11:08:11.870Z,11.00
2019-02-09T11:10:40.376Z,11.20
2019-02-09T11:13:08.912Z,11.00
2019-02-09T11:15:37.515Z,11.00
2019-02-09T11:18:06.711Z,10.90
2019-02-09T11:20:35.237Z,10.70
2019-02-09T11:23:03.856Z,10.80
2019-02-09T11:25:32.390Z,11.00
2019-02-09T11:28:00.971Z,13.00
2019-02-09T11:30:31.314Z,13.50
2019-02-09T11:33:02.407Z,13.40
2019-02-09T11:35:30.318Z,12.80
2019-02-09T11:37:58.823Z,14.30
2019-02-09T11:40:30.379Z,14.70
2019-02-09T11:42:59.554Z,13.60
2019-02-09T11:45:30.426Z,12.80
2019-02-09T11:47:59.136Z,11.90
2019-02-09T11:50:27.734Z,11.50
2019-02-09T11:52:56.314Z,11.40
2019-02-09T11:55:24.945Z,11.30
2019-02-09T11:57:53.534Z,11.10
2019-02-09T12:00:24.773Z,10.90
2019-02-09T12:02:53.387Z,11.10
2019-02-09T12:05:21.901Z,11.10
2019-02-09T12:07:50.906Z,11.30
2019-02-09T12:10:24.081Z,11.40
2019-02-09T12:12:52.592Z,12.70
2019-02-09T12:15:30.254Z,12.80
2019-02-09T12:17:58.831Z,13.30
2019-02-09T12:20:27.453Z,12.60
2019-02-09T12:22:55.895Z,12.90
2019-02-09T12:25:33.383Z,13.30
2019-02-09T12:28:02.039Z,13.90
2019-02-09T12:30:32.857Z,12.80
2019-02-09T12:33:01.690Z,12.70
2019-02-09T12:35:30.483Z,13.40
2019-02-09T12:37:58.954Z,12.80
2019-02-09T12:40:35.109Z,13.80
2019-02-09T12:43:03.890Z,14.10
2019-02-09T12:45:35.180Z,14.50
2019-02-09T12:48:04.301Z,14.20
2019-02-09T12:50:32.953Z,14.30
2019-02-09T12:53:01.423Z,14.30
2019-02-09T12:55:30.331Z,14.40
2019-02-09T12:57:58.832Z,14.30
2019-02-09T13:00:29.143Z,14.10
2019-02-09T13:03:00.391Z,14.00
2019-02-09T13:05:29.827Z,13.70
2019-02-09T13:07:58.263Z,13.40
2019-02-09T13:10:26.799Z,14.00
2019-02-09T13:12:55.251Z,14.20
2019-02-09T13:15:28.955Z,13.10
2019-02-09T13:17:57.552Z,13.00
2019-02-09T13:20:30.536Z,12.60
2019-02-09T13:22:59.114Z,13.40
2019-02-09T13:25:27.551Z,13.10
2019-02-09T13:27:56.076Z,13.80
2019-02-09T13:30:30.283Z,14.00
2019-02-09T13:32:59.006Z,14.20
2019-02-09T13:35:27.849Z,14.20
2019-02-09T13:37:56.358Z,13.90
2019-02-09T13:40:26.659Z,13.70
2019-02-09T13:42:55.451Z,13.10
2019-02-09T13:45:29.099Z,12.40
2019-02-09T13:47:57.614Z,11.80
2019-02-09T13:50:27.310Z,11.50
2019-02-09T13:52:55.913Z,11.40
2019-02-09T13:55:24.379Z,11.50
2019-02-09T13:57:52.817Z,11.90
2019-02-09T14:00:26.236Z,11.60
2019-02-09T14:02:55.908Z,11.30
2019-02-09T14:05:24.435Z,11.50
2019-02-09T14:07:53.118Z,11.30
2019-02-09T14:10:24.667Z,11.30
2019-02-09T14:12:53.183Z,11.30
2019-02-09T14:15:24.250Z,11.20
2019-02-09T14:17:52.965Z,11.10
2019-02-09T14:20:21.753Z,11.10
2019-02-09T14:22:51.101Z,11.00
2019-02-09T14:25:20.498Z,11.10
2019-02-09T14:27:50.791Z,11.20
2019-02-09T14:30:21.915Z,11.40
2019-02-09T14:32:50.601Z,11.60
2019-02-09T14:35:19.496Z,11.50
2019-02-09T14:37:48.544Z,11.30
2019-02-09T14:40:28.029Z,11.10
2019-02-09T14:42:56.762Z,11.00
2019-02-09T14:45:28.119Z,10.80
2019-02-09T14:47:56.638Z,10.80
2019-02-09T14:50:25.459Z,10.80
2019-02-09T14:52:53.984Z,10.90
2019-02-09T14:55:25.598Z,10.80
2019-02-09T14:57:54.109Z,10.70
2019-02-09T15:00:33.823Z,10.70
2019-02-09T15:03:02.327Z,10.70
2019-02-09T15:05:30.903Z,10.50
2019-02-09T15:07:59.413Z,10.60
2019-02-09T15:10:27.938Z,10.50
2019-02-09T15:12:56.396Z,10.50
2019-02-09T15:15:27.652Z,10.50
2019-02-09T15:17:56.086Z,10.50
2019-02-09T15:20:27.690Z,10.60
2019-02-09T15:22:56.134Z,10.50
2019-02-09T15:25:24.604Z,10.50
2019-02-09T15:27:53.098Z,10.50
2019-02-09T15:30:24.480Z,10.50
2019-02-09T15:32:52.950Z,10.30
2019-02-09T15:35:21.598Z,10.30
2019-02-09T15:37:50.110Z,10.30
2019-02-09T15:40:20.409Z,10.30
2019-02-09T15:42:48.916Z,10.20
2019-02-09T15:45:19.511Z,10.10
2019-02-09T15:47:48.302Z,10.00
2019-02-09T15:50:17.868Z,10.00
2019-02-09T15:52:47.526Z,10.00
2019-02-09T15:55:21.099Z,10.00
2019-02-09T15:57:49.541Z,10.00
2019-02-09T16:00:31.400Z,10.00
2019-02-09T16:03:00.814Z,9.90
2019-02-09T16:05:29.455Z,9.90
2019-02-09T16:07:58.056Z,9.80
2019-02-09T16:10:26.666Z,9.70
2019-02-09T16:12:55.158Z,9.70
2019-02-09T16:15:31.462Z,9.60
2019-02-09T16:17:59.904Z,9.60
2019-02-09T16:20:30.400Z,9.50
2019-02-09T16:22:58.904Z,9.50
2019-02-09T16:25:27.436Z,9.50
2019-02-09T16:27:55.879Z,9.50
2019-02-09T16:30:28.502Z,9.50
2019-02-09T16:32:57.020Z,9.50
2019-02-09T16:35:26.921Z,9.40
2019-02-09T16:37:55.526Z,9.40
2019-02-09T16:40:26.592Z,9.40
2019-02-09T16:42:55.095Z,9.40
2019-02-09T16:45:28.837Z,9.40
2019-02-09T16:47:57.348Z,9.30
2019-02-09T16:50:25.841Z,9.40
2019-02-09T16:52:54.356Z,9.30
2019-02-09T16:55:23.061Z,9.20
2019-02-09T16:57:52.214Z,9.20
2019-02-09T17:00:29.095Z,9.10
2019-02-09T17:02:57.593Z,9.10
2019-02-09T17:05:26.045Z,9.10
2019-02-09T17:07:54.547Z,9.10
2019-02-09T17:10:23.246Z,9.00
2019-02-09T17:12:51.699Z,9.00
2019-02-09T17:15:28.238Z,8.90
2019-02-09T17:17:56.928Z,8.90
2019-02-09T17:20:25.824Z,8.90
2019-02-09T17:22:54.253Z,8.80
2019-02-09T17:25:26.042Z,8.80
2019-02-09T17:27:54.557Z,8.80
2019-02-09T17:30:33.145Z,8.80
2019-02-09T17:33:01.669Z,8.70
2019-02-09T17:35:30.195Z,8.70
2019-02-09T17:37:58.660Z,8.70
2019-02-09T17:40:29.645Z,8.70
2019-02-09T17:42:58.255Z,8.60
2019-02-09T17:45:32.586Z,8.60
2019-02-09T17:48:01.025Z,8.50
2019-02-09T17:50:29.554Z,8.40
2019-02-09T17:52:58.236Z,8.40
2019-02-09T17:55:26.680Z,8.30
2019-02-09T17:57:55.116Z,8.30
2019-02-09T18:00:35.494Z,8.30
2019-02-09T18:03:04.078Z,8.20
2019-02-09T18:05:32.550Z,8.20
2019-02-09T18:08:00.985Z,8.20
2019-02-09T18:10:29.450Z,8.20
2019-02-09T18:12:57.894Z,8.20
2019-02-09T18:15:26.363Z,8.10
2019-02-09T18:17:54.808Z,8.10
2019-02-09T18:20:23.399Z,8.10
2019-02-09T18:22:51.914Z,8.10
2019-02-09T18:25:23.728Z,8.10
2019-02-09T18:27:52.162Z,8.10
2019-02-09T18:30:25.950Z,8.10
2019-02-09T18:32:54.463Z,8.10
2019-02-09T18:35:22.925Z,8.00
2019-02-09T18:37:51.428Z,8.10
2019-02-09T18:40:27.587Z,8.00
2019-02-09T18:42:56.359Z,8.00
2019-02-09T18:45:30.054Z,8.00
2019-02-09T18:47:58.664Z,7.90
2019-02-09T18:50:29.383Z,7.90
2019-02-09T18:52:58.785Z,7.90
2019-02-09T18:55:28.593Z,7.80
2019-02-09T18:57:57.162Z,7.80
2019-02-09T19:00:34.790Z,7.80
2019-02-09T19:03:03.310Z,7.80
2019-02-09T19:05:31.844Z,7.80
2019-02-09T19:08:00.351Z,7.70
2019-02-09T19:10:29.521Z,7.70
2019-02-09T19:12:58.115Z,7.70
2019-02-09T19:15:28.018Z,7.70
2019-02-09T19:17:57.923Z,7.70
2019-02-09T19:20:29.183Z,7.70
2019-02-09T19:22:57.706Z,7.60
2019-02-09T19:25:26.488Z,7.70
2019-02-09T19:27:55.107Z,7.70
2019-02-09T19:30:24.796Z,7.70
2019-02-09T19:32:53.796Z,7.70
2019-02-09T19:35:22.374Z,7.70
2019-02-09T19:37:50.998Z,7.60
2019-02-09T19:40:21.638Z,7.60
2019-02-09T19:42:50.532Z,7.70
2019-02-09T19:45:24.140Z,7.90
2019-02-09T19:47:52.657Z,7.90
2019-02-09T19:50:21.383Z,8.00
2019-02-09T19:52:50.043Z,8.00
2019-02-09T19:55:26.405Z,8.00
2019-02-09T19:57:55.003Z,7.90
2019-02-09T20:00:38.442Z,7.80
2019-02-09T20:03:07.788Z,7.70
2019-02-09T20:05:36.293Z,7.60
2019-02-09T20:08:06.603Z,7.70
2019-02-09T20:10:40.404Z,7.60
2019-02-09T20:13:10.613Z,7.70
2019-02-09T20:15:39.221Z,7.70
2019-02-09T20:18:09.087Z,7.80
2019-02-09T20:20:37.541Z,7.80
2019-02-09T20:23:06.361Z,7.80
2019-02-09T20:25:34.952Z,7.80
2019-02-09T20:28:03.775Z,7.80
2019-02-09T20:30:40.109Z,7.80
2019-02-09T20:33:09.282Z,7.80
2019-02-09T20:35:38.133Z,7.70
2019-02-09T20:38:08.332Z,7.60
2019-02-09T20:40:42.157Z,7.50
2019-02-09T20:43:13.025Z,7.50
2019-02-09T20:45:41.545Z,7.40
2019-02-09T20:48:10.205Z,7.40
2019-02-09T20:50:38.734Z,7.30
2019-02-09T20:53:07.444Z,7.20
2019-02-09T20:55:35.979Z,7.20
2019-02-09T20:58:06.753Z,7.20
2019-02-09T21:00:35.252Z,7.20
2019-02-09T21:03:04.638Z,7.10
2019-02-09T21:05:36.492Z,7.10
2019-02-09T21:08:03.605Z,7.00
2019-02-09T21:10:34.817Z,6.90
2019-02-09T21:13:03.283Z,6.80
2019-02-09T21:15:31.954Z,6.80
2019-02-09T21:18:01.961Z,6.80
2019-02-09T21:20:30.740Z,6.90
2019-02-09T21:22:59.205Z,6.90
2019-02-09T21:25:36.126Z,6.90
2019-02-09T21:28:05.202Z,7.00
2019-02-09T21:30:33.653Z,7.00
2019-02-09T21:33:02.144Z,7.00
2019-02-09T21:35:30.711Z,7.00
2019-02-09T21:37:59.643Z,7.00
2019-02-09T21:40:32.329Z,6.90
2019-02-09T21:43:01.430Z,7.00
2019-02-09T21:45:30.158Z,7.00
2019-02-09T21:47:58.895Z,7.00
2019-02-09T21:50:38.113Z,7.00
2019-02-09T21:53:07.806Z,7.00
2019-02-09T21:55:36.372Z,6.90
2019-02-09T21:58:06.783Z,6.90
2019-02-09T22:00:37.718Z,6.90
2019-02-09T22:03:07.728Z,6.80
2019-02-09T22:05:36.299Z,6.80
2019-02-09T22:08:06.294Z,6.80
2019-02-09T22:10:34.745Z,6.80
2019-02-09T22:13:03.267Z,6.80
2019-02-09T22:15:38.447Z,6.70
2019-02-09T22:18:02.596Z,6.70
2019-02-09T22:20:31.046Z,6.80
2019-02-09T22:22:59.841Z,6.70
2019-02-09T22:25:29.731Z,6.70
2019-02-09T22:27:58.291Z,6.60
2019-02-09T22:30:30.622Z,6.70
2019-02-09T22:32:59.564Z,6.70
2019-02-09T22:35:28.613Z,6.70
2019-02-09T22:37:57.826Z,6.80
2019-02-09T22:40:33.902Z,6.80
2019-02-09T22:43:02.631Z,6.80
2019-02-09T22:45:31.370Z,6.80
2019-02-09T22:48:00.269Z,6.90
2019-02-09T22:50:37.045Z,6.80
2019-02-09T22:53:05.842Z,6.80
2019-02-09T22:55:34.405Z,6.90
2019-02-09T22:58:02.863Z,6.80
2019-02-09T23:00:52.674Z,6.90
2019-02-09T23:03:38.817Z,6.80
2019-02-09T23:06:13.266Z,6.90
2019-02-09T23:08:43.131Z,6.80
2019-02-09T23:11:11.565Z,6.70
2019-02-09T23:13:40.019Z,6.70
2019-02-09T23:16:08.590Z,6.70
2019-02-09T23:18:37.049Z,6.70
2019-02-09T23:21:05.541Z,6.60
2019-02-09T23:23:34.265Z,6.60
2019-02-09T23:26:02.699Z,6.50
2019-02-09T23:28:31.150Z,6.50
2019-02-09T23:30:59.581Z,6.40
2019-02-09T23:33:28.091Z,6.40
2019-02-09T23:35:57.710Z,6.30
2019-02-09T23:38:26.159Z,6.30
2019-02-09T23:40:54.587Z,6.30
2019-02-09T23:43:23.040Z,6.20
2019-02-09T23:45:51.490Z,6.20
2019-02-09T23:48:19.945Z,6.30
2019-02-09T23:50:48.376Z,6.30
2019-02-09T23:53:16.825Z,6.30
2019-02-09T23:55:45.314Z,6.30
2019-02-09T23:58:13.774Z,6.30
